createdAt,value
2019-02-07T00:00:30.290Z,10.15
2019-02-07T00:02:59.068Z,10.05
2019-02-07T00:05:28.000Z,10.78
2019-02-07T00:07:56.817Z,10.00
2019-02-07T00:10:25.696Z,8.48
2019-02-07T00:12:55.018Z,9.90
2019-02-07T00:15:23.861Z,9.95
2019-02-07T00:17:52.946Z,9.75
2019-02-07T00:20:21.835Z,9.40
2019-02-07T00:22:50.733Z,9.33
2019-02-07T00:25:19.557Z,9.55
2019-02-07T00:27:48.401Z,8.50
2019-02-07T00:30:19.665Z,9.48
2019-02-07T00:32:48.678Z,8.78
2019-02-07T00:35:17.835Z,9.65
2019-02-07T00:37:46.841Z,8.80
2019-02-07T00:40:17.771Z,8.58
2019-02-07T00:42:47.106Z,9.55
2019-02-07T00:45:17.440Z,9.00
2019-02-07T00:47:46.222Z,8.80
2019-02-07T00:50:16.600Z,9.00
2019-02-07T00:52:45.698Z,8.40
2019-02-07T00:55:15.831Z,9.83
2019-02-07T00:57:45.044Z,9.05
2019-02-07T01:00:20.071Z,9.38
2019-02-07T01:02:48.972Z,9.13
2019-02-07T01:05:18.138Z,9.75
2019-02-07T01:07:47.029Z,8.80
2019-02-07T01:10:19.287Z,9.90
2019-02-07T01:12:49.628Z,9.08
2019-02-07T01:15:18.862Z,9.43
2019-02-07T01:17:47.623Z,9.30
2019-02-07T01:20:17.304Z,9.15
2019-02-07T01:22:46.412Z,8.60
2019-02-07T01:25:22.806Z,8.90
2019-02-07T01:28:10.588Z,9.38
2019-02-07T01:30:58.445Z,9.10
2019-02-07T01:33:46.687Z,9.63
2019-02-07T01:36:34.846Z,8.85
2019-02-07T01:39:24.360Z,9.45
2019-02-07T01:42:12.222Z,8.38
2019-02-07T01:44:59.977Z,9.40
2019-02-07T01:47:47.795Z,8.90
2019-02-07T01:50:35.657Z,8.78
2019-02-07T01:56:17.396Z,8.58
2019-02-07T01:59:05.698Z,8.40
2019-02-07T02:01:53.520Z,8.35
2019-02-07T02:04:42.997Z,8.43
2019-02-07T02:19:33.701Z,8.50
2019-02-07T02:34:11.016Z,9.63
2019-02-07T02:39:50.794Z,7.53
2019-02-07T03:03:45.959Z,8.73
2019-02-07T03:45:35.645Z,8.83
2019-02-07T03:51:16.902Z,9.00
2019-02-07T04:11:55.782Z,9.30
2019-02-07T04:29:39.014Z,9.25
2019-02-07T04:32:21.602Z,7.30
2019-02-07T04:59:32.312Z,11.90
2019-02-07T05:23:21.523Z,9.60
2019-02-07T05:26:21.500Z,9.78
2019-02-07T05:32:36.206Z,9.20
2019-02-07T06:23:39.253Z,9.75
2019-02-07T06:50:14.018Z,10.10
2019-02-07T07:43:58.622Z,12.33
2019-02-07T07:52:57.297Z,12.75
2019-02-07T07:55:39.637Z,12.58
2019-02-07T08:04:20.474Z,12.80
2019-02-07T08:07:20.663Z,13.15
2019-02-07T11:24:06.404Z,9.23
2019-02-07T11:50:58.368Z,8.75
2019-02-07T12:02:54.855Z,8.25
2019-02-07T12:05:37.897Z,9.08
2019-02-07T12:26:38.037Z,7.45
2019-02-07T13:23:08.206Z,5.90
2019-02-07T13:28:54.748Z,6.33
2019-02-07T13:31:25.239Z,8.35
2019-02-07T13:33:56.001Z,7.55
2019-02-07T13:36:43.944Z,7.25
2019-02-07T13:39:32.537Z,6.60
2019-02-07T13:42:19.616Z,6.33
2019-02-07T13:44:59.017Z,7.90
2019-02-07T13:47:32.400Z,7.90
2019-02-07T13:50:19.421Z,6.80
2019-02-07T13:52:49.914Z,7.22
2019-02-07T13:55:37.376Z,6.33
2019-02-07T13:58:07.686Z,7.17
2019-02-07T14:00:38.107Z,7.17
2019-02-07T14:03:25.218Z,7.42
2019-02-07T14:05:59.228Z,7.87
2019-02-07T14:08:38.417Z,7.28
2019-02-07T14:11:04.919Z,7.45
2019-02-07T14:13:51.294Z,7.40
2019-02-07T14:16:27.999Z,7.53
2019-02-07T14:19:14.632Z,8.25
2019-02-07T14:22:01.633Z,8.50
2019-02-07T14:24:48.580Z,7.65
2019-02-07T14:27:22.428Z,8.00
2019-02-07T14:30:09.360Z,7.45
2019-02-07T14:32:49.062Z,8.80
2019-02-07T14:35:31.567Z,8.65
2019-02-07T14:38:07.728Z,7.15
2019-02-07T14:40:46.882Z,8.98
2019-02-07T14:43:20.314Z,9.48
2019-02-07T14:46:07.281Z,8.38
2019-02-07T14:48:36.039Z,7.90
2019-02-07T14:51:05.048Z,9.30
2019-02-07T14:53:33.911Z,8.85
2019-02-07T14:56:02.699Z,9.30
2019-02-07T14:58:31.559Z,7.83
2019-02-07T15:01:00.450Z,9.58
2019-02-07T15:03:29.608Z,8.35
2019-02-07T15:05:58.452Z,7.80
2019-02-07T15:08:27.320Z,7.97
2019-02-07T15:10:56.400Z,8.80
2019-02-07T15:13:25.256Z,8.50
2019-02-07T15:15:54.109Z,7.62
2019-02-07T15:18:23.250Z,8.50
2019-02-07T15:20:52.000Z,7.22
2019-02-07T15:23:20.815Z,6.83
2019-02-07T15:25:49.865Z,6.70
2019-02-07T15:28:18.741Z,8.48
2019-02-07T15:30:47.961Z,6.80
2019-02-07T15:33:16.738Z,8.00
2019-02-07T15:35:48.796Z,7.28
2019-02-07T15:38:17.600Z,8.05
2019-02-07T15:40:46.718Z,8.25
2019-02-07T15:43:16.041Z,7.80
2019-02-07T15:45:44.860Z,7.78
2019-02-07T15:48:13.658Z,8.08
2019-02-07T15:50:42.558Z,6.92
2019-02-07T15:53:11.729Z,7.33
2019-02-07T15:55:40.613Z,7.40
2019-02-07T15:58:09.498Z,7.70
2019-02-07T16:00:49.037Z,7.95
2019-02-07T16:03:32.042Z,8.70
2019-02-07T16:06:00.902Z,8.48
2019-02-07T16:08:29.658Z,8.08
2019-02-07T16:10:58.394Z,9.00
2019-02-07T16:13:27.142Z,8.70
2019-02-07T16:15:55.992Z,9.60
2019-02-07T16:18:25.007Z,7.97
2019-02-07T16:20:53.891Z,8.78
2019-02-07T16:23:22.681Z,8.30
2019-02-07T16:25:51.501Z,8.73
2019-02-07T16:28:20.411Z,9.38
2019-02-07T16:30:49.464Z,9.28
2019-02-07T16:33:18.204Z,9.53
2019-02-07T16:35:46.941Z,9.03
2019-02-07T16:38:15.696Z,9.03
2019-02-07T16:40:44.551Z,10.65
2019-02-07T16:43:13.392Z,8.85
2019-02-07T16:45:42.497Z,9.30
2019-02-07T16:48:11.317Z,8.68
2019-02-07T16:50:40.090Z,9.30
2019-02-07T16:53:08.961Z,9.60
2019-02-07T16:55:37.917Z,9.43
2019-02-07T16:58:06.822Z,9.63
2019-02-07T17:00:37.476Z,9.80
2019-02-07T17:03:07.480Z,10.53
2019-02-07T17:05:37.984Z,9.85
2019-02-07T17:08:06.967Z,8.68
2019-02-07T17:10:38.156Z,10.03
2019-02-07T17:13:10.052Z,9.75
2019-02-07T17:15:39.171Z,9.40
2019-02-07T17:18:08.140Z,9.23
2019-02-07T17:20:37.410Z,10.53
2019-02-07T17:23:07.207Z,9.90
2019-02-07T17:25:36.020Z,8.90
2019-02-07T17:28:05.167Z,9.18
2019-02-07T17:30:34.692Z,10.38
2019-02-07T17:33:03.551Z,10.15
2019-02-07T17:35:33.091Z,9.30
2019-02-07T17:38:01.896Z,12.43
2019-02-07T17:40:30.775Z,10.32
2019-02-07T17:42:59.606Z,8.93
2019-02-07T17:45:32.268Z,9.98
2019-02-07T17:48:01.279Z,10.98
2019-02-07T17:50:35.121Z,11.80
2019-02-07T17:53:12.381Z,10.43
2019-02-07T17:55:41.428Z,11.38
2019-02-07T17:58:11.291Z,11.00
2019-02-07T18:01:02.500Z,12.03
2019-02-07T18:03:31.651Z,10.32
2019-02-07T18:06:00.549Z,12.25
2019-02-07T18:08:29.929Z,11.10
2019-02-07T18:10:58.696Z,11.00
2019-02-07T18:13:27.798Z,10.65
2019-02-07T18:15:57.492Z,11.50
2019-02-07T18:18:26.661Z,11.80
2019-02-07T18:20:55.569Z,13.10
2019-02-07T18:23:24.313Z,11.93
2019-02-07T18:25:53.057Z,13.62
2019-02-07T18:28:21.906Z,12.23
2019-02-07T18:30:50.753Z,12.53
2019-02-07T18:33:19.579Z,12.30
2019-02-07T18:35:48.357Z,13.13
2019-02-07T18:38:17.099Z,13.13
2019-02-07T18:40:46.159Z,11.85
2019-02-07T18:43:15.005Z,13.58
2019-02-07T18:45:43.805Z,12.35
2019-02-07T18:48:12.634Z,13.38
2019-02-07T18:50:41.688Z,13.43
2019-02-07T18:53:10.465Z,13.18
2019-02-07T18:55:39.270Z,13.28
2019-02-07T18:58:08.149Z,13.95
2019-02-07T19:00:38.363Z,12.37
2019-02-07T19:03:08.464Z,12.90
2019-02-07T19:05:37.317Z,13.78
2019-02-07T19:08:06.811Z,13.98
2019-02-07T19:10:35.836Z,13.45
2019-02-07T19:13:05.317Z,13.90
2019-02-07T19:15:39.818Z,15.35
2019-02-07T19:18:08.733Z,13.83
2019-02-07T19:20:37.817Z,15.70
2019-02-07T19:23:07.271Z,15.95
2019-02-07T19:25:36.655Z,14.50
2019-02-07T19:28:24.522Z,15.58
2019-02-07T19:31:12.345Z,15.72
2019-02-07T19:34:01.889Z,16.15
2019-02-07T19:36:49.653Z,15.98
2019-02-07T19:39:37.491Z,16.40
2019-02-07T19:42:25.345Z,14.33
2019-02-07T19:45:13.180Z,15.70
2019-02-07T19:48:01.510Z,15.88
2019-02-07T19:50:49.352Z,15.48
2019-02-07T19:53:38.887Z,14.78
2019-02-07T19:56:27.199Z,15.28
2019-02-07T19:59:15.122Z,14.93
2019-02-07T20:02:02.939Z,16.90
2019-02-07T20:04:50.802Z,16.62
2019-02-07T20:07:38.617Z,16.12
2019-02-07T20:10:26.563Z,17.15
2019-02-07T20:13:28.248Z,17.70
2019-02-07T20:31:22.373Z,17.48
2019-02-07T20:34:10.564Z,16.73
2019-02-07T20:36:58.533Z,18.42
2019-02-07T20:39:46.368Z,18.23
2019-02-07T20:42:34.236Z,18.80
2019-02-07T20:45:22.086Z,17.20
2019-02-07T20:48:09.978Z,18.50
2019-02-07T20:50:57.793Z,18.50
2019-02-07T20:53:47.573Z,18.73
2019-02-07T20:56:35.471Z,17.30
2019-02-07T20:59:23.346Z,18.10
2019-02-07T21:02:11.302Z,17.42
2019-02-07T21:04:59.495Z,19.70
2019-02-07T21:07:47.410Z,19.50
2019-02-07T21:10:35.260Z,18.90
2019-02-07T21:13:25.215Z,18.55
2019-02-07T22:13:12.820Z,19.30
2019-02-07T22:15:54.230Z,18.65
2019-02-07T22:54:11.191Z,19.80
2019-02-07T22:56:59.008Z,19.45
2019-02-07T22:59:46.809Z,19.52
2019-02-07T23:02:34.569Z,16.02
2019-02-07T23:05:22.413Z,18.00
2019-02-07T23:08:10.317Z,18.02
2019-02-07T23:10:58.111Z,15.90
2019-02-07T23:13:45.879Z,16.57
2019-02-07T23:19:39.850Z,19.00
